createdAt,value
2022-11-02T00:00:51.586Z,94.88
2022-11-02T00:03:33.764Z,94.18
2022-11-02T00:06:02.483Z,88.53
2022-11-02T00:08:30.834Z,89.80
2022-11-02T00:10:59.374Z,90.00
2022-11-02T00:13:27.922Z,93.25
2022-11-02T00:15:56.984Z,87.78
2022-11-02T00:18:25.433Z,87.18
2022-11-02T00:20:56.591Z,89.35
2022-11-02T00:23:25.140Z,94.22
2022-11-02T00:25:55.745Z,91.57
2022-11-02T00:28:24.665Z,89.50
2022-11-02T00:30:53.589Z,84.88
2022-11-02T00:33:21.907Z,89.22
2022-11-02T00:35:50.918Z,81.53
2022-11-02T00:38:19.433Z,88.78
2022-11-02T00:40:48.367Z,84.72
2022-11-02T00:43:17.456Z,94.15
2022-11-02T00:45:46.404Z,91.47
2022-11-02T00:48:14.732Z,78.75
2022-11-02T00:50:43.597Z,77.10
2022-11-02T00:53:12.469Z,77.20
2022-11-02T00:55:47.685Z,83.72
2022-11-02T00:58:16.129Z,78.93
2022-11-02T01:00:45.445Z,77.63
2022-11-02T01:03:13.716Z,80.28
2022-11-02T01:05:42.357Z,78.80
2022-11-02T01:08:10.931Z,78.00
2022-11-02T01:10:42.769Z,74.35
2022-11-02T01:13:14.065Z,73.90
2022-11-02T01:15:43.324Z,77.38
2022-11-02T01:18:11.840Z,72.57
2022-11-02T01:20:40.463Z,65.70
2022-11-02T01:23:08.726Z,67.85
2022-11-02T01:25:37.304Z,74.80
2022-11-02T01:28:06.245Z,70.47
2022-11-02T01:30:35.588Z,73.82
2022-11-02T01:33:06.240Z,68.97
2022-11-02T01:35:37.138Z,71.05
2022-11-02T01:38:05.941Z,77.80
2022-11-02T01:40:37.089Z,68.15
2022-11-02T01:43:22.495Z,62.58
2022-11-02T01:45:55.200Z,69.53
2022-11-02T01:48:32.367Z,70.82
2022-11-02T01:51:04.870Z,64.78
2022-11-02T01:53:36.102Z,66.07
2022-11-02T01:56:05.895Z,58.50
2022-11-02T01:58:35.402Z,63.97
2022-11-02T02:01:04.186Z,65.20
2022-11-02T02:03:35.684Z,58.47
2022-11-02T02:06:28.205Z,57.78
2022-11-02T02:09:02.148Z,59.55
2022-11-02T02:11:34.566Z,60.10
2022-11-02T02:14:14.573Z,55.88
2022-11-02T02:17:29.110Z,59.53
2022-11-02T02:20:38.329Z,63.35
2022-11-02T02:23:41.236Z,59.70
2022-11-02T02:26:51.841Z,60.15
2022-11-02T02:29:59.571Z,54.47
2022-11-02T02:32:50.980Z,54.47
2022-11-02T02:35:38.113Z,59.17
2022-11-02T02:38:36.486Z,55.47
2022-11-02T02:41:31.725Z,54.83
2022-11-02T02:44:02.945Z,56.38
2022-11-02T02:46:40.514Z,57.75
2022-11-02T02:49:16.138Z,53.88
2022-11-02T02:51:47.349Z,53.80
2022-11-02T02:54:23.000Z,56.20
2022-11-02T02:56:58.231Z,53.28
2022-11-02T02:59:41.278Z,51.13
2022-11-02T03:02:37.380Z,52.15
2022-11-02T03:05:25.731Z,54.58
2022-11-02T03:07:56.502Z,55.08
2022-11-02T03:10:34.887Z,53.03
2022-11-02T03:13:16.255Z,51.72
2022-11-02T03:16:01.434Z,50.83
2022-11-02T03:19:05.614Z,47.00
2022-11-02T03:21:49.091Z,51.70
2022-11-02T03:24:26.403Z,51.00
2022-11-02T03:27:16.860Z,53.70
2022-11-02T03:30:09.661Z,52.78
2022-11-02T03:33:04.794Z,55.90
2022-11-02T03:35:39.750Z,60.45
2022-11-02T03:38:16.512Z,69.60
2022-11-02T03:40:49.625Z,76.88
2022-11-02T03:43:21.470Z,80.18
2022-11-02T03:45:58.946Z,71.40
2022-11-02T03:48:39.432Z,67.35
2022-11-02T03:51:14.097Z,58.35
2022-11-02T03:53:50.041Z,61.22
2022-11-02T03:56:30.255Z,56.22
2022-11-02T03:58:59.104Z,58.60
2022-11-02T04:01:29.737Z,57.33
2022-11-02T04:03:58.689Z,57.47
2022-11-02T04:06:27.955Z,59.08
2022-11-02T04:08:56.589Z,59.72
2022-11-02T04:11:45.578Z,62.08
2022-11-02T04:14:34.851Z,64.00
2022-11-02T04:17:26.709Z,67.80
2022-11-02T04:19:56.632Z,69.37
2022-11-02T04:22:44.821Z,65.80
2022-11-02T04:25:19.098Z,61.08
2022-11-02T04:28:08.050Z,63.95
2022-11-02T04:30:40.420Z,61.80
2022-11-02T04:33:27.979Z,63.72
2022-11-02T04:36:05.220Z,60.38
2022-11-02T04:41:40.742Z,63.40
2022-11-02T04:44:32.146Z,64.72
2022-11-02T04:47:07.060Z,57.88
2022-11-02T04:49:37.491Z,56.63
2022-11-02T04:52:10.094Z,65.95
2022-11-02T04:54:43.796Z,62.30
2022-11-02T04:57:12.361Z,57.78
2022-11-02T04:59:41.618Z,61.92
2022-11-02T05:02:10.111Z,60.53
2022-11-02T05:04:39.807Z,59.88
2022-11-02T05:07:11.283Z,62.35
2022-11-02T05:09:42.673Z,54.75
2022-11-02T05:14:41.139Z,54.15
2022-11-02T05:17:09.673Z,56.55
2022-11-02T05:19:40.451Z,49.15
2022-11-02T05:22:08.885Z,56.13
2022-11-02T05:24:37.509Z,53.30
2022-11-02T05:27:06.843Z,58.53
2022-11-02T05:29:41.650Z,55.85
2022-11-02T05:32:10.307Z,46.63
2022-11-02T05:34:40.195Z,53.30
2022-11-02T05:37:10.675Z,47.60
2022-11-02T05:39:39.600Z,47.03
2022-11-02T05:42:07.995Z,49.20
2022-11-02T05:44:38.008Z,42.50
2022-11-02T05:47:06.710Z,46.60
2022-11-02T05:49:35.634Z,41.90
2022-11-02T05:52:04.354Z,55.88
2022-11-02T05:54:32.865Z,39.25
2022-11-02T05:57:02.934Z,42.22
2022-11-02T05:59:31.526Z,40.30
2022-11-02T06:02:00.275Z,43.67
2022-11-02T06:04:28.974Z,43.03
2022-11-02T06:06:57.378Z,40.45
2022-11-02T06:09:29.687Z,40.85
2022-11-02T06:11:58.047Z,43.63
2022-11-02T06:14:26.867Z,44.20
2022-11-02T06:16:55.302Z,33.30
2022-11-02T06:19:23.983Z,27.88
2022-11-02T06:21:52.380Z,33.75
2022-11-02T06:24:21.622Z,36.42
2022-11-02T06:26:50.034Z,31.10
2022-11-02T06:29:19.346Z,32.42
2022-11-02T06:31:51.628Z,32.00
2022-11-02T06:34:20.386Z,34.20
2022-11-02T06:36:49.088Z,32.85
2022-11-02T06:39:17.806Z,34.35
2022-11-02T06:41:46.325Z,33.97
2022-11-02T06:44:15.160Z,31.45
2022-11-02T06:46:43.649Z,34.08
2022-11-02T06:49:13.952Z,31.92
2022-11-02T06:51:42.288Z,31.80
2022-11-02T06:54:10.951Z,33.75
2022-11-02T06:56:39.258Z,29.45
2022-11-02T06:59:08.060Z,31.25
2022-11-02T07:01:37.794Z,29.13
2022-11-02T07:04:08.284Z,28.83
2022-11-02T07:06:36.780Z,30.13
2022-11-02T07:09:05.477Z,32.78
2022-11-02T07:11:33.882Z,30.95
2022-11-02T07:14:02.531Z,35.95
2022-11-02T07:16:31.523Z,33.22
2022-11-02T07:19:00.405Z,32.63
2022-11-02T07:21:29.004Z,33.97
2022-11-02T07:23:57.680Z,34.92
2022-11-02T07:26:27.291Z,33.55
2022-11-02T07:28:59.253Z,34.67
2022-11-02T07:31:28.650Z,33.25
2022-11-02T07:33:57.491Z,26.25
2022-11-02T07:36:25.883Z,28.65
2022-11-02T07:38:55.713Z,31.08
2022-11-02T07:41:24.650Z,32.50
2022-11-02T07:43:53.513Z,32.72
2022-11-02T07:46:48.166Z,34.58
2022-11-02T07:49:21.295Z,31.10
2022-11-02T07:51:50.344Z,27.67
2022-11-02T07:54:19.145Z,25.88
2022-11-02T07:56:47.440Z,27.90
2022-11-02T07:59:16.146Z,27.88
2022-11-02T08:01:44.664Z,25.70
2022-11-02T08:04:13.465Z,26.30
2022-11-02T08:06:41.911Z,24.63
2022-11-02T08:09:11.174Z,26.95
2022-11-02T08:11:59.676Z,25.05
2022-11-02T08:14:28.354Z,23.17
2022-11-02T08:16:56.659Z,26.15
2022-11-02T08:19:25.569Z,25.00
2022-11-02T08:21:56.376Z,26.58
2022-11-02T08:24:25.393Z,25.35
2022-11-02T08:26:54.826Z,26.60
2022-11-02T08:29:27.930Z,26.23
2022-11-02T08:31:56.519Z,25.08
2022-11-02T08:34:25.440Z,25.17
2022-11-02T08:36:53.871Z,27.05
2022-11-02T08:39:23.108Z,32.08
2022-11-02T08:41:52.267Z,27.23
2022-11-02T08:44:21.580Z,29.00
2022-11-02T08:46:49.950Z,28.90
2022-11-02T08:49:18.971Z,25.42
2022-11-02T08:51:47.863Z,27.95
2022-11-02T08:54:16.512Z,30.40
2022-11-02T08:56:45.065Z,26.10
2022-11-02T08:59:14.086Z,28.17
2022-11-02T09:01:42.454Z,27.63
2022-11-02T09:04:11.440Z,29.42
2022-11-02T09:06:42.491Z,29.67
2022-11-02T09:09:11.327Z,25.67
2022-11-02T09:11:39.950Z,25.02
2022-11-02T09:14:09.164Z,25.60
2022-11-02T09:16:41.491Z,24.65
2022-11-02T09:19:10.705Z,23.65
2022-11-02T09:21:39.018Z,26.50
2022-11-02T09:24:08.682Z,25.27
2022-11-02T09:26:37.066Z,26.45
2022-11-02T09:29:05.945Z,25.42
2022-11-02T09:31:35.167Z,25.55
2022-11-02T09:34:03.982Z,22.67
2022-11-02T09:36:32.312Z,23.98
2022-11-02T09:39:01.027Z,21.75
2022-11-02T09:42:00.793Z,26.95
2022-11-02T09:44:43.825Z,23.38
2022-11-02T09:48:10.717Z,20.48
2022-11-02T09:50:04.127Z,24.75
2022-11-02T09:52:38.351Z,23.30
2022-11-02T09:55:22.121Z,27.08
2022-11-02T09:58:01.148Z,22.33
2022-11-02T10:01:01.987Z,20.00
2022-11-02T10:03:51.980Z,19.25
2022-11-02T10:06:23.988Z,22.20
2022-11-02T10:09:04.714Z,23.63
2022-11-02T10:11:49.427Z,19.88
2022-11-02T10:14:39.115Z,20.77
2022-11-02T10:17:22.862Z,21.52
2022-11-02T10:19:57.808Z,18.42
2022-11-02T10:22:33.498Z,19.50
2022-11-02T10:25:06.732Z,18.48
2022-11-02T10:27:39.399Z,19.35
2022-11-02T10:30:18.407Z,21.05
2022-11-02T10:32:54.039Z,18.98
2022-11-02T10:35:57.569Z,18.02
2022-11-02T10:38:47.223Z,17.23
2022-11-02T10:41:19.126Z,16.73
2022-11-02T10:44:12.353Z,17.58
2022-11-02T10:47:16.244Z,17.38
2022-11-02T10:50:08.050Z,20.20
2022-11-02T10:52:43.514Z,18.70
2022-11-02T10:55:21.556Z,15.77
2022-11-02T10:57:53.273Z,19.27
2022-11-02T11:00:37.686Z,17.10
2022-11-02T11:03:13.963Z,17.38
2022-11-02T11:05:51.617Z,17.77
2022-11-02T11:08:39.991Z,16.23
2022-11-02T11:11:27.478Z,16.63
2022-11-02T11:20:07.225Z,15.05
2022-11-02T11:22:40.007Z,15.25
2022-11-02T11:25:28.265Z,13.98
2022-11-02T11:27:59.161Z,13.50
2022-11-02T11:30:59.499Z,11.60
2022-11-02T11:35:51.525Z,13.85
2022-11-02T11:38:26.487Z,12.30
2022-11-02T11:40:59.049Z,13.27
2022-11-02T11:43:34.372Z,12.77
2022-11-02T11:46:07.318Z,10.65
2022-11-02T11:48:40.470Z,11.75
2022-11-02T11:51:45.281Z,10.80
2022-11-02T11:54:31.782Z,10.77
2022-11-02T11:57:25.730Z,11.90
2022-11-02T11:59:57.552Z,13.48
2022-11-02T12:02:29.657Z,11.80
2022-11-02T12:05:21.019Z,14.00
2022-11-02T12:08:10.078Z,11.13
2022-11-02T12:10:49.747Z,12.32
2022-11-02T12:13:18.683Z,10.68
2022-11-02T12:15:53.052Z,11.77
2022-11-02T12:18:45.330Z,14.57
2022-11-02T12:21:41.136Z,13.35
2022-11-02T12:24:34.810Z,12.10
2022-11-02T12:27:24.779Z,18.17
2022-11-02T12:30:04.914Z,11.50
2022-11-02T12:32:54.894Z,11.93
2022-11-02T12:35:59.666Z,10.95
2022-11-02T12:38:53.772Z,12.70
2022-11-02T12:41:40.923Z,10.85
2022-11-02T12:44:27.304Z,12.90
2022-11-02T12:47:06.875Z,8.20
2022-11-02T12:49:38.967Z,11.13
2022-11-02T12:52:39.725Z,10.05
2022-11-02T12:55:18.130Z,10.90
2022-11-02T12:57:48.603Z,10.52
2022-11-02T13:00:22.700Z,10.48
2022-11-02T13:02:58.299Z,8.50
2022-11-02T13:05:33.160Z,10.43
2022-11-02T13:08:23.137Z,8.13
2022-11-02T13:10:55.878Z,10.35
2022-11-02T13:13:42.333Z,10.73
2022-11-02T13:16:12.032Z,8.00
2022-11-02T13:18:48.837Z,6.85
2022-11-02T13:21:23.744Z,6.72
2022-11-02T13:23:57.624Z,10.55
2022-11-02T13:26:33.466Z,10.75
2022-11-02T13:29:19.457Z,13.45
2022-11-02T13:32:00.538Z,7.53
2022-11-02T13:34:38.175Z,8.73
2022-11-02T13:37:33.805Z,10.15
2022-11-02T13:40:08.825Z,8.25
2022-11-02T13:42:47.259Z,8.90
2022-11-02T13:45:34.563Z,12.15
2022-11-02T13:48:36.131Z,11.65
2022-11-02T13:51:17.797Z,8.18
2022-11-02T13:53:59.154Z,6.77
2022-11-02T13:56:30.479Z,9.23
2022-11-02T13:59:09.706Z,11.25
2022-11-02T14:02:04.873Z,7.53
2022-11-02T14:04:55.635Z,10.13
2022-11-02T14:07:32.678Z,10.68
2022-11-02T14:10:21.391Z,13.20
2022-11-02T14:12:50.046Z,10.75
2022-11-02T14:15:18.551Z,10.50
2022-11-02T14:18:02.807Z,7.40
2022-11-02T14:20:49.315Z,14.90
2022-11-02T14:23:36.870Z,9.43
2022-11-02T14:26:30.690Z,10.10
2022-11-02T14:28:59.032Z,12.27
2022-11-02T14:31:40.710Z,8.68
2022-11-02T14:34:33.164Z,9.25
2022-11-02T14:37:09.883Z,8.43
2022-11-02T14:40:08.216Z,11.45
2022-11-02T14:43:13.945Z,9.63
2022-11-02T14:46:09.348Z,12.07
2022-11-02T14:48:51.977Z,8.25
2022-11-02T14:51:27.880Z,8.02
2022-11-02T14:54:00.807Z,10.00
2022-11-02T14:56:53.151Z,12.40
2022-11-02T14:59:40.406Z,7.40
2022-11-02T15:02:20.950Z,10.60
2022-11-02T15:55:54.112Z,9.95
2022-11-02T15:59:05.426Z,14.18
2022-11-02T16:01:35.944Z,11.50
2022-11-02T16:04:30.480Z,9.82
2022-11-02T16:07:15.190Z,10.85
2022-11-02T16:09:52.617Z,13.18
2022-11-02T17:10:35.114Z,14.70
2022-11-02T17:13:22.298Z,13.85
2022-11-02T17:16:17.868Z,14.60
2022-11-02T17:22:31.295Z,9.13
2022-11-02T17:25:23.324Z,9.73
2022-11-02T17:27:56.729Z,13.38
2022-11-02T17:30:31.183Z,13.20
2022-11-02T17:33:25.316Z,12.02
2022-11-02T17:36:03.934Z,13.70
2022-11-02T17:38:32.634Z,7.40
2022-11-02T17:41:02.127Z,18.05
2022-11-02T17:43:30.552Z,14.82
2022-11-02T17:46:03.421Z,12.55
2022-11-02T17:48:32.566Z,10.98
2022-11-02T17:51:01.451Z,15.63
2022-11-02T17:53:29.847Z,11.75
2022-11-02T17:55:58.460Z,11.60
2022-11-02T17:58:26.897Z,10.85
2022-11-02T18:00:55.871Z,11.90
2022-11-02T18:03:31.089Z,12.88
2022-11-02T18:06:00.812Z,15.02
2022-11-02T18:08:29.373Z,12.18
2022-11-02T18:10:58.346Z,16.88
2022-11-02T18:13:26.725Z,14.18
2022-11-02T18:15:55.562Z,18.40
2022-11-02T18:18:26.448Z,11.43
2022-11-02T18:20:55.270Z,11.75
2022-11-02T18:23:28.811Z,11.70
2022-11-02T18:25:59.478Z,17.80
2022-11-02T18:28:27.916Z,9.45
2022-11-02T18:30:56.469Z,9.25
2022-11-02T18:33:24.753Z,15.43
2022-11-02T18:36:01.453Z,13.82
2022-11-02T18:38:29.814Z,10.40
2022-11-02T18:41:04.143Z,11.55
2022-11-02T18:43:32.699Z,14.40
2022-11-02T18:46:01.331Z,13.68
2022-11-02T18:48:29.654Z,12.27
2022-11-02T18:51:04.751Z,13.10
2022-11-02T18:53:33.123Z,15.68
2022-11-02T18:56:09.825Z,19.60
2022-11-02T18:58:38.804Z,16.92
2022-11-02T19:01:13.265Z,18.42
2022-11-02T19:03:41.957Z,16.05
2022-11-02T19:06:32.147Z,17.73
2022-11-02T19:09:18.690Z,16.45
2022-11-02T19:11:56.964Z,13.63
2022-11-02T19:14:28.297Z,15.05
2022-11-02T19:16:57.281Z,18.77
2022-11-02T19:19:26.303Z,16.17
2022-11-02T19:21:55.024Z,16.33
2022-11-02T19:24:29.999Z,18.40
2022-11-02T19:27:25.648Z,17.08
2022-11-02T19:30:18.932Z,17.70
2022-11-02T19:32:47.623Z,15.52
2022-11-02T19:35:16.234Z,19.63
2022-11-02T19:37:49.364Z,15.52
2022-11-02T19:40:43.424Z,22.85
2022-11-02T19:43:41.625Z,16.25
2022-11-02T19:46:18.727Z,17.17
2022-11-02T19:48:48.639Z,18.45
2022-11-02T19:51:42.143Z,20.70
2022-11-02T19:54:12.759Z,13.88
2022-11-02T19:56:41.128Z,13.32
2022-11-02T19:59:11.285Z,14.00
2022-11-02T20:01:42.532Z,15.35
2022-11-02T20:04:12.709Z,12.88
2022-11-02T20:06:43.632Z,10.75
2022-11-02T20:09:19.739Z,11.73
2022-11-02T20:11:48.569Z,14.38
2022-11-02T20:14:18.747Z,15.63
2022-11-02T20:16:58.368Z,17.52
2022-11-02T20:19:33.408Z,15.00
2022-11-02T20:22:03.233Z,13.45
2022-11-02T20:24:34.481Z,13.82
2022-11-02T20:27:04.635Z,14.88
2022-11-02T20:29:33.642Z,13.55
2022-11-02T20:32:02.219Z,12.30
2022-11-02T20:34:31.116Z,10.05
2022-11-02T20:36:59.619Z,14.18
2022-11-02T20:39:28.307Z,19.05
2022-11-02T20:41:57.577Z,11.60
2022-11-02T20:44:26.431Z,13.00
2022-11-02T20:46:54.894Z,9.48
2022-11-02T20:49:48.645Z,13.98
2022-11-02T20:52:12.493Z,11.32
2022-11-02T20:54:41.467Z,8.30
2022-11-02T20:57:09.900Z,9.07
2022-11-02T20:59:38.877Z,10.30
2022-11-02T21:02:09.673Z,9.48
2022-11-02T21:04:39.794Z,9.80
2022-11-02T21:07:08.217Z,8.38
2022-11-02T21:10:02.395Z,7.15
2022-11-02T21:12:50.201Z,7.05
2022-11-02T21:15:19.196Z,7.60
2022-11-02T21:17:47.553Z,7.97
2022-11-02T21:23:06.208Z,6.10
2022-11-02T21:25:36.443Z,14.15
2022-11-02T21:28:06.889Z,14.93
2022-11-02T21:30:35.594Z,16.95
2022-11-02T21:33:04.598Z,10.98
2022-11-02T21:35:33.600Z,9.30
2022-11-02T21:38:05.318Z,8.68
2022-11-02T21:40:36.628Z,8.68
2022-11-02T21:43:05.326Z,9.82
2022-11-02T21:45:37.912Z,10.13
2022-11-02T21:48:06.696Z,7.70
2022-11-02T21:50:35.564Z,9.20
2022-11-02T21:53:06.782Z,10.52
2022-11-02T21:55:37.584Z,8.13
2022-11-02T21:58:12.882Z,10.13
2022-11-02T22:01:06.709Z,9.63
2022-11-02T22:03:35.066Z,8.23
2022-11-02T22:06:05.123Z,7.45
2022-11-02T22:08:39.130Z,8.43
2022-11-02T22:11:19.024Z,11.88
2022-11-02T22:13:49.189Z,13.25
2022-11-02T22:16:27.945Z,10.45
2022-11-02T22:18:58.196Z,8.52
2022-11-02T22:21:28.934Z,8.50
2022-11-02T22:23:58.236Z,10.05
2022-11-02T22:26:29.401Z,8.25
2022-11-02T22:29:01.957Z,6.95
2022-11-02T22:31:35.802Z,5.85
2022-11-02T22:34:06.715Z,8.27
2022-11-02T22:36:36.795Z,9.67
2022-11-02T22:39:07.185Z,6.18
2022-11-02T22:41:42.564Z,10.93
2022-11-02T22:44:18.929Z,9.50
2022-11-02T22:46:49.987Z,8.52
2022-11-02T22:49:20.132Z,7.47
2022-11-02T22:51:50.663Z,9.52
2022-11-02T22:54:20.651Z,6.07
2022-11-02T22:56:49.494Z,4.90
2022-11-02T22:59:17.972Z,8.45
2022-11-02T23:01:46.809Z,5.43
2022-11-02T23:04:15.335Z,6.65
2022-11-02T23:06:44.085Z,5.53
2022-11-02T23:09:37.436Z,7.55
2022-11-02T23:12:06.512Z,7.68
2022-11-02T23:14:34.877Z,7.05
2022-11-02T23:17:03.623Z,6.70
2022-11-02T23:19:33.143Z,4.32
2022-11-02T23:22:25.992Z,5.82
2022-11-02T23:25:11.455Z,6.13
2022-11-02T23:28:04.163Z,7.88
2022-11-02T23:30:55.769Z,5.45
2022-11-02T23:33:29.179Z,7.78
2022-11-02T23:36:13.213Z,4.05
2022-11-02T23:39:04.125Z,7.75
2022-11-02T23:41:34.527Z,4.40
2022-11-02T23:44:12.515Z,4.88
2022-11-02T23:46:42.725Z,3.75
2022-11-02T23:49:12.845Z,8.70
2022-11-02T23:51:59.501Z,7.15
2022-11-02T23:54:47.341Z,6.18
2022-11-02T23:57:16.049Z,5.72
2022-11-02T23:59:44.653Z,7.72
